リヤド の空港の天気 - METARとTAF

キング・ハーリド国際空港(リヤド) ( OERK / RUH ) - サウジアラビア リヤド
飛行場実況気象(Metar)
観測時間05/31 06:00 AST (05/31 03:00 UTC)
風向・風速北北西 1m/s
視程10km以上
天気現象
なし
気温29℃
湿度29%
気圧1012hPa
METAROERK 310300Z 33002KT CAVOK 29/09 Q1012 NOSIG
過去の天気等 Google飛行場航空写真 Wunderground天気予報

過去48時間のMETAR

飛行場予報(TAF)
発表時間: 5/31 02:10 AST (5/30 23:10 UTC)
予報対象時間: 31日3時 AST ~ 1日9時 AST
風向・風速不定 2m/s
視程10km以上
なし
31日9時 AST ~ 31日11時 AST に徐々に
風向・風速東 6m/s
TAF OERK 302310Z 3100/0106 VRB03KT CAVOK
BECMG 3106/3108 08012KT